createdAt,value
2019-04-23T00:00:45.314Z,101793.52
2019-04-23T00:02:53.681Z,101800.95
2019-04-23T00:05:02.141Z,101785.77
2019-04-23T00:07:15.779Z,101788.91
2019-04-23T00:09:23.887Z,101790.25
2019-04-23T00:11:32.406Z,101778.89
2019-04-23T00:13:39.403Z,101787.19
2019-04-23T00:15:59.909Z,101788.06
2019-04-23T00:17:55.892Z,101784.57
2019-04-23T00:20:09.599Z,101780.64
2019-04-23T00:22:23.599Z,101780.27
2019-04-23T00:25:19.301Z,101778.96
2019-04-23T00:26:54.862Z,101779.88
2019-04-23T00:29:05.346Z,101778.12
2019-04-23T00:31:15.233Z,101777.72
2019-04-23T00:33:25.075Z,101779.88
2019-04-23T00:35:27.365Z,101772.95
2019-04-23T00:37:35.593Z,101775.58
2019-04-23T00:39:46.761Z,101773.86
2019-04-23T00:41:50.485Z,101777.36
2019-04-23T00:44:02.671Z,101773.39
2019-04-23T00:46:06.303Z,101776.95
2019-04-23T00:48:26.133Z,101772.59
2019-04-23T00:50:30.352Z,101774.40
2019-04-23T00:52:35.345Z,101767.91
2019-04-23T00:56:54.497Z,101771.91
2019-04-23T00:58:55.002Z,101777.16
2019-04-23T01:01:03.127Z,101775.47
2019-04-23T01:03:12.546Z,101775.94
2019-04-23T01:05:27.769Z,101771.16
2019-04-23T01:07:31.832Z,101769.48
2019-04-23T01:09:45.744Z,101773.31
2019-04-23T01:11:43.423Z,101769.36
2019-04-23T01:14:11.425Z,101767.61
2019-04-23T01:16:08.563Z,101766.36
2019-04-23T01:20:50.227Z,101771.22
2019-04-23T01:22:40.224Z,101770.38
2019-04-23T01:25:05.392Z,101760.33
2019-04-23T01:29:48.711Z,101761.23
2019-04-23T01:31:47.903Z,101763.88
2019-04-23T01:33:53.190Z,101759.98
2019-04-23T01:36:23.468Z,101749.51
2019-04-23T01:38:11.227Z,101754.75
2019-04-23T01:42:35.485Z,101743.40
2019-04-23T01:44:42.469Z,101745.11
2019-04-23T01:48:52.282Z,101742.09
2019-04-23T01:50:56.059Z,101742.09
2019-04-23T01:55:21.216Z,101732.98
2019-04-23T01:57:30.654Z,101729.89
2019-04-23T01:59:31.859Z,101730.80
2019-04-23T02:01:47.911Z,101729.48
2019-04-23T02:03:58.274Z,101729.98
2019-04-23T02:06:03.225Z,101726.46
2019-04-23T02:10:25.898Z,101729.52
2019-04-23T02:12:28.597Z,101727.36
2019-04-23T02:14:36.465Z,101723.93
2019-04-23T02:16:57.911Z,101725.67
2019-04-23T02:18:56.787Z,101729.16
2019-04-23T02:20:59.557Z,101719.07
2019-04-23T02:23:24.652Z,101727.83
2019-04-23T02:27:47.084Z,101726.13
2019-04-23T02:30:11.912Z,101727.06
2019-04-23T02:32:01.432Z,101725.31
2019-04-23T02:38:30.855Z,101727.11
2019-04-23T02:40:48.840Z,101721.93
2019-04-23T02:44:56.232Z,101723.66
2019-04-23T02:47:10.278Z,101715.83
2019-04-23T02:49:27.236Z,101717.98
2019-04-23T02:51:17.575Z,101705.33
2019-04-23T02:53:37.548Z,101708.38
2019-04-23T02:55:42.869Z,101709.27
2019-04-23T03:02:14.818Z,101705.81
2019-04-23T03:06:16.710Z,101699.29
2019-04-23T03:08:26.764Z,101700.17
2019-04-23T03:10:41.871Z,101696.70
2019-04-23T03:12:48.960Z,101698.02
2019-04-23T03:14:49.959Z,101697.18
2019-04-23T03:16:56.550Z,101697.98
2019-04-23T03:19:23.661Z,101689.31
2019-04-23T03:23:49.976Z,101693.66
2019-04-23T03:26:13.855Z,101690.19
2019-04-23T03:27:55.882Z,101693.23
2019-04-23T03:30:16.706Z,101690.17
2019-04-23T03:35:09.564Z,101687.99
2019-04-23T03:37:11.069Z,101687.16
2019-04-23T03:41:01.020Z,101681.92
2019-04-23T03:45:16.660Z,101683.23
2019-04-23T03:49:30.483Z,101687.16
2019-04-23T03:51:38.408Z,101675.78
2019-04-23T03:55:56.229Z,101674.43
2019-04-23T04:00:12.619Z,101677.90
2019-04-23T04:02:31.000Z,101681.82
2019-04-23T04:04:25.185Z,101682.62
2019-04-23T04:06:45.472Z,101673.53
2019-04-23T04:08:33.908Z,101677.11
2019-04-23T04:10:51.991Z,101674.29
2019-04-23T04:13:15.734Z,101671.45
2019-04-23T04:15:07.777Z,101665.43
2019-04-23T04:17:13.760Z,101666.41
2019-04-23T04:23:43.718Z,101661.80
2019-04-23T04:25:53.486Z,101661.03
2019-04-23T04:28:03.484Z,101667.63
2019-04-23T04:32:14.837Z,101667.83
2019-04-23T04:34:43.842Z,101666.48
2019-04-23T04:38:42.353Z,101663.30
2019-04-23T04:40:45.647Z,101672.15
2019-04-23T04:47:10.000Z,101660.31
2019-04-23T04:55:45.092Z,101669.28
2019-04-23T04:57:52.143Z,101668.77
2019-04-23T05:02:16.240Z,101662.95
2019-04-23T05:04:19.944Z,101657.61
2019-04-23T05:06:44.291Z,101665.34
2019-04-23T05:08:48.251Z,101656.11
2019-04-23T05:11:07.765Z,101662.56
2019-04-23T05:12:45.190Z,101662.04
2019-04-23T05:17:04.539Z,101651.73
2019-04-23T05:19:27.304Z,101651.61
2019-04-23T05:23:50.921Z,101651.72
2019-04-23T05:26:08.547Z,101649.02
2019-04-23T05:28:04.170Z,101645.36
2019-04-23T05:30:07.769Z,101645.62
2019-04-23T05:32:12.031Z,101648.95
2019-04-23T05:34:16.960Z,101645.68
2019-04-23T05:36:30.750Z,101646.83
2019-04-23T05:40:53.630Z,101647.30
2019-04-23T05:42:58.543Z,101649.35
2019-04-23T05:45:06.108Z,101642.59
2019-04-23T05:47:16.020Z,101643.20
2019-04-23T05:49:45.828Z,101639.91
2019-04-23T05:51:42.083Z,101643.13
2019-04-23T05:53:40.792Z,101630.20
2019-04-23T05:55:55.530Z,101632.97
2019-04-23T05:58:03.263Z,101634.44
2019-04-23T06:00:10.669Z,101628.94
2019-04-23T06:02:13.323Z,101622.91
2019-04-23T06:08:45.981Z,101612.11
2019-04-23T06:10:58.139Z,101622.82
2019-04-23T06:13:06.308Z,101620.17
2019-04-23T06:15:18.055Z,101610.66
2019-04-23T06:17:29.825Z,101612.99
2019-04-23T06:19:21.321Z,101620.06
2019-04-23T06:21:44.736Z,101606.11
2019-04-23T06:28:03.727Z,101598.55
2019-04-23T06:30:08.406Z,101603.18
2019-04-23T06:32:22.874Z,101605.59
2019-04-23T06:40:53.987Z,101592.27
2019-04-23T06:43:18.363Z,101590.98
2019-04-23T06:45:17.541Z,101590.80
2019-04-23T06:47:27.700Z,101588.42
2019-04-23T06:49:47.578Z,101578.67
2019-04-23T06:51:53.418Z,101576.30
2019-04-23T06:53:51.297Z,101574.30
2019-04-23T06:56:03.880Z,101574.08
2019-04-23T06:58:15.717Z,101556.25
2019-04-23T07:00:23.929Z,101576.16
2019-04-23T07:02:22.410Z,101570.00
2019-04-23T07:06:48.586Z,101564.97
2019-04-23T07:09:05.280Z,101545.39
2019-04-23T07:11:14.265Z,101552.19
2019-04-23T07:13:10.382Z,101549.50
2019-04-23T07:15:33.491Z,101553.39
2019-04-23T07:17:21.344Z,101550.34
2019-04-23T07:19:31.723Z,101547.25
2019-04-23T07:21:33.496Z,101535.84
2019-04-23T07:23:53.622Z,101539.41
2019-04-23T07:25:55.930Z,101533.33
2019-04-23T07:28:07.113Z,101536.63
2019-04-23T07:30:13.619Z,101527.45
2019-04-23T07:32:15.189Z,101543.61
2019-04-23T07:34:24.427Z,101522.65
2019-04-23T07:36:35.542Z,101519.50
2019-04-23T07:38:56.381Z,101515.56
2019-04-23T07:40:58.747Z,101518.16
2019-04-23T07:43:03.604Z,101518.59
2019-04-23T07:45:35.060Z,101515.63
2019-04-23T07:48:06.826Z,101521.37
2019-04-23T07:50:20.571Z,101533.52
2019-04-23T07:52:14.929Z,101513.46
2019-04-23T07:54:25.680Z,101521.28
2019-04-23T07:56:27.975Z,101522.61
2019-04-23T07:58:46.362Z,101516.31
2019-04-23T08:00:45.496Z,101511.75
2019-04-23T08:03:01.078Z,101510.48
2019-04-23T08:05:11.484Z,101520.67
2019-04-23T08:07:09.623Z,101515.96
2019-04-23T08:09:22.327Z,101524.27
2019-04-23T08:13:42.342Z,101529.63
2019-04-23T08:15:42.581Z,101522.48
2019-04-23T08:17:41.485Z,101493.66
2019-04-23T08:20:03.097Z,101491.05
2019-04-23T08:22:12.521Z,101484.56
2019-04-23T08:24:38.549Z,101491.64
2019-04-23T08:26:50.219Z,101485.57
2019-04-23T08:29:07.807Z,101480.25
2019-04-23T08:31:00.787Z,101498.74
2019-04-23T08:33:23.458Z,101488.98
2019-04-23T08:35:33.971Z,101483.70
2019-04-23T08:39:41.111Z,101474.69
2019-04-23T08:41:59.641Z,101479.70
2019-04-23T08:43:57.438Z,101492.62
2019-04-23T08:46:26.911Z,101486.25
2019-04-23T08:50:40.047Z,101483.42
2019-04-23T08:52:53.961Z,101473.81
2019-04-23T08:55:08.668Z,101483.26
2019-04-23T08:59:17.777Z,101470.97
2019-04-23T09:01:52.432Z,101463.75
2019-04-23T09:05:46.785Z,101464.55
2019-04-23T09:07:56.896Z,101461.43
2019-04-23T09:09:59.013Z,101447.73
2019-04-23T09:14:08.912Z,101457.45
2019-04-23T09:16:28.422Z,101457.14
2019-04-23T09:18:26.330Z,101449.55
2019-04-23T09:20:31.254Z,101434.17
2019-04-23T09:22:43.578Z,101443.06
2019-04-23T09:24:55.534Z,101441.36
2019-04-23T09:27:09.716Z,101452.92
2019-04-23T09:29:12.066Z,101435.11
2019-04-23T09:34:00.030Z,101424.63
2019-04-23T09:35:59.793Z,101429.22
2019-04-23T09:50:01.250Z,101411.76
2019-04-23T09:54:21.864Z,101422.80
2019-04-23T09:56:30.236Z,101403.58
2019-04-23T09:58:30.048Z,101398.15
2019-04-23T10:02:45.684Z,101410.94
2019-04-23T10:04:51.971Z,101398.31
2019-04-23T10:06:58.682Z,101399.36
2019-04-23T10:08:57.682Z,101402.38
2019-04-23T10:11:00.419Z,101373.77
2019-04-23T10:13:08.262Z,101400.45
2019-04-23T10:15:33.035Z,101384.59
2019-04-23T10:17:36.067Z,101391.07
2019-04-23T10:19:42.762Z,101376.64
2019-04-23T10:21:49.328Z,101402.19
2019-04-23T10:23:57.101Z,101379.66
2019-04-23T10:26:03.916Z,101375.27
2019-04-23T10:28:20.425Z,101379.11
2019-04-23T10:30:26.998Z,101382.42
2019-04-23T10:32:33.590Z,101378.91
2019-04-23T10:34:52.425Z,101380.95
2019-04-23T10:36:49.345Z,101379.48
2019-04-23T10:39:02.637Z,101376.09
2019-04-23T10:41:04.412Z,101383.79
2019-04-23T10:43:11.274Z,101357.86
2019-04-23T10:45:57.614Z,101370.19
2019-04-23T10:50:47.631Z,101360.66
2019-04-23T10:53:02.550Z,101367.14
2019-04-23T10:55:03.242Z,101344.19
2019-04-23T10:57:04.014Z,101352.81
2019-04-23T10:59:40.358Z,101346.48
2019-04-23T11:01:50.069Z,101352.19
2019-04-23T11:06:23.780Z,101347.53
2019-04-23T11:08:30.953Z,101349.61
2019-04-23T11:10:42.487Z,101348.00
2019-04-23T11:13:10.800Z,101356.53
2019-04-23T11:17:15.608Z,101351.06
2019-04-23T11:19:24.827Z,101353.54
2019-04-23T11:23:46.677Z,101370.53
2019-04-23T11:25:44.786Z,101361.83
2019-04-23T11:28:02.908Z,101369.75
2019-04-23T11:30:15.102Z,101360.08
2019-04-23T11:38:09.130Z,101369.67
2019-04-23T11:40:36.939Z,101345.41
2019-04-23T11:42:57.860Z,101341.39
2019-04-23T11:45:10.529Z,101338.84
2019-04-23T11:47:14.275Z,101353.30
2019-04-23T11:49:34.586Z,101343.30
2019-04-23T11:51:46.051Z,101343.86
2019-04-23T11:53:45.555Z,101345.81
2019-04-23T11:58:07.671Z,101348.29
2019-04-23T12:00:05.584Z,101352.83
2019-04-23T12:02:35.473Z,101337.58
2019-04-23T12:04:37.120Z,101344.45
2019-04-23T12:06:41.886Z,101338.95
2019-04-23T12:08:58.921Z,101327.50
2019-04-23T12:11:39.356Z,101333.00
2019-04-23T12:13:28.531Z,101335.88
2019-04-23T12:17:42.228Z,101330.95
2019-04-23T12:19:57.525Z,101308.27
2019-04-23T12:22:01.442Z,101305.56
2019-04-23T12:26:23.751Z,101316.27
2019-04-23T12:28:25.870Z,101287.22
2019-04-23T12:30:36.316Z,101295.94
2019-04-23T12:32:48.773Z,101296.66
2019-04-23T12:36:50.952Z,101295.00
2019-04-23T12:39:11.344Z,101295.53
2019-04-23T12:41:17.483Z,101292.43
2019-04-23T12:43:20.686Z,101299.72
2019-04-23T12:45:31.712Z,101295.86
2019-04-23T12:50:13.268Z,101306.02
2019-04-23T12:51:55.498Z,101282.80
2019-04-23T12:54:07.745Z,101308.47
2019-04-23T12:56:08.885Z,101289.71
2019-04-23T12:58:22.079Z,101267.37
2019-04-23T13:00:32.245Z,101283.95
2019-04-23T13:02:52.131Z,101274.10
2019-04-23T13:06:57.839Z,101267.95
2019-04-23T13:09:17.862Z,101258.50
2019-04-23T13:11:14.033Z,101263.78
2019-04-23T13:17:58.838Z,101259.95
2019-04-23T13:19:56.061Z,101244.59
2019-04-23T13:22:21.778Z,101244.65
2019-04-23T13:24:11.330Z,101241.10
2019-04-23T13:26:24.365Z,101250.02
2019-04-23T13:30:55.762Z,101233.52
2019-04-23T13:32:58.924Z,101239.75
2019-04-23T13:35:19.843Z,101244.81
2019-04-23T13:37:20.200Z,101240.61
2019-04-23T13:39:30.925Z,101217.19
2019-04-23T13:41:23.382Z,101216.40
2019-04-23T13:48:02.869Z,101226.00
2019-04-23T13:50:20.255Z,101224.11
2019-04-23T13:52:43.007Z,101217.95
2019-04-23T13:54:28.418Z,101215.83
2019-04-23T13:56:49.258Z,101214.91
2019-04-23T13:58:43.373Z,101212.52
2019-04-23T14:01:01.091Z,101214.92
2019-04-23T14:02:56.429Z,101217.23
2019-04-23T14:05:17.776Z,101215.91
2019-04-23T14:07:28.762Z,101210.97
2019-04-23T14:09:37.408Z,101210.19
2019-04-23T14:11:30.844Z,101212.33
2019-04-23T14:18:27.049Z,101209.97
2019-04-23T14:20:19.007Z,101213.98
2019-04-23T14:24:38.832Z,101193.59
2019-04-23T14:26:34.881Z,101200.98
2019-04-23T14:28:44.770Z,101192.59
2019-04-23T14:31:03.039Z,101194.20
2019-04-23T14:33:12.298Z,101192.00
2019-04-23T14:37:23.596Z,101183.94
2019-04-23T14:39:33.182Z,101176.92
2019-04-23T14:42:03.670Z,101182.59
2019-04-23T14:43:56.594Z,101172.59
2019-04-23T14:46:38.504Z,101168.63
2019-04-23T14:48:14.911Z,101174.89
2019-04-23T14:50:32.300Z,101193.44
2019-04-23T14:52:39.061Z,101174.31
2019-04-23T14:55:28.246Z,101173.47
2019-04-23T14:57:00.749Z,101165.55
2019-04-23T14:59:07.157Z,101186.91
2019-04-23T15:03:44.541Z,101171.91
2019-04-23T15:05:38.395Z,101174.50
2019-04-23T15:09:57.370Z,101152.30
2019-04-23T15:14:29.522Z,101159.12
2019-04-23T15:18:37.832Z,101159.00
2019-04-23T15:21:08.634Z,101174.58
2019-04-23T15:23:25.683Z,101160.51
2019-04-23T15:29:15.794Z,101151.34
2019-04-23T15:31:48.778Z,101149.52
2019-04-23T15:36:12.971Z,101167.19
2019-04-23T15:38:27.057Z,101165.66
2019-04-23T15:44:39.446Z,101166.64
2019-04-23T15:46:51.063Z,101160.72
2019-04-23T15:49:07.171Z,101165.28
2019-04-23T15:51:11.790Z,101154.04
2019-04-23T15:53:07.862Z,101157.95
2019-04-23T15:55:22.425Z,101156.44
2019-04-23T15:57:45.190Z,101145.98
2019-04-23T15:59:44.099Z,101157.28
2019-04-23T16:01:39.698Z,101150.62
2019-04-23T16:03:29.021Z,101140.72
2019-04-23T16:05:37.197Z,101155.55
2019-04-23T16:08:01.728Z,101159.07
2019-04-23T16:12:27.747Z,101154.70
2019-04-23T16:14:46.076Z,101151.86
2019-04-23T16:16:58.310Z,101155.39
2019-04-23T16:19:20.771Z,101159.37
2019-04-23T16:21:32.267Z,101161.18
2019-04-23T16:23:26.403Z,101154.80
2019-04-23T16:25:36.529Z,101137.14
2019-04-23T16:27:53.026Z,101152.98
2019-04-23T16:30:15.931Z,101148.14
2019-04-23T16:32:18.856Z,101163.90
2019-04-23T16:34:29.177Z,101156.58
2019-04-23T16:36:38.884Z,101165.31
2019-04-23T16:40:47.644Z,101154.15
2019-04-23T16:43:08.650Z,101158.99
2019-04-23T16:45:14.833Z,101161.45
2019-04-23T16:47:24.608Z,101173.98
2019-04-23T16:51:38.817Z,101168.84
2019-04-23T16:53:44.520Z,101154.59
2019-04-23T16:56:18.563Z,101158.79
2019-04-23T16:58:21.434Z,101150.20
2019-04-23T17:02:28.068Z,101155.55
2019-04-23T17:04:38.622Z,101166.19
2019-04-23T17:06:54.863Z,101161.88
2019-04-23T17:16:06.677Z,101170.50
2019-04-23T17:18:03.103Z,101168.09
2019-04-23T17:20:25.217Z,101176.73
2019-04-23T17:22:26.044Z,101168.67
2019-04-23T17:25:04.255Z,101158.58
2019-04-23T17:26:46.472Z,101163.39
2019-04-23T17:28:54.414Z,101168.14
2019-04-23T17:31:32.777Z,101157.36
2019-04-23T17:33:31.444Z,101171.99
2019-04-23T17:36:07.006Z,101169.12
2019-04-23T17:38:09.057Z,101168.14
2019-04-23T17:48:58.204Z,101173.16
2019-04-23T17:51:11.453Z,101178.76
2019-04-23T17:53:23.299Z,101174.09
2019-04-23T17:55:32.503Z,101174.67
2019-04-23T18:00:09.944Z,101165.16
2019-04-23T18:02:27.348Z,101168.09
2019-04-23T18:08:26.795Z,101171.50
2019-04-23T18:10:51.670Z,101179.47
2019-04-23T18:12:53.794Z,101179.65
2019-04-23T18:15:00.362Z,101182.94
2019-04-23T18:17:13.393Z,101179.42
2019-04-23T18:19:16.802Z,101180.36
2019-04-23T18:22:02.199Z,101179.00
2019-04-23T18:24:16.480Z,101175.48
2019-04-23T18:26:24.852Z,101185.70
2019-04-23T18:28:29.701Z,101186.73
2019-04-23T18:30:42.182Z,101185.10
2019-04-23T18:33:33.844Z,101181.35
2019-04-23T18:35:21.508Z,101184.87
2019-04-23T18:37:25.797Z,101188.16
2019-04-23T18:39:32.934Z,101194.39
2019-04-23T18:41:43.303Z,101194.48
2019-04-23T18:43:56.341Z,101182.70
2019-04-23T18:46:08.987Z,101195.89
2019-04-23T18:50:48.870Z,101191.94
2019-04-23T18:53:00.694Z,101191.24
2019-04-23T18:55:04.146Z,101188.91
2019-04-23T18:57:12.896Z,101187.65
2019-04-23T18:59:30.437Z,101182.34
2019-04-23T19:01:37.392Z,101186.38
2019-04-23T19:10:57.973Z,101184.53
2019-04-23T19:13:14.154Z,101187.95
2019-04-23T19:17:46.663Z,101184.69
2019-04-23T19:19:48.076Z,101188.32
2019-04-23T19:24:09.551Z,101184.03
2019-04-23T19:26:41.751Z,101184.59
2019-04-23T19:31:14.730Z,101178.94
2019-04-23T19:33:13.611Z,101183.63
2019-04-23T19:35:42.000Z,101193.15
2019-04-23T19:37:44.433Z,101185.41
2019-04-23T19:39:55.052Z,101185.55
2019-04-23T19:44:02.861Z,101172.20
2019-04-23T19:46:41.857Z,101172.61
2019-04-23T19:50:56.290Z,101173.84
2019-04-23T19:53:04.477Z,101171.09
2019-04-23T19:57:23.179Z,101169.00
2019-04-23T19:59:29.904Z,101164.00
2019-04-23T20:01:47.206Z,101170.77
2019-04-23T20:05:55.627Z,101161.98
2019-04-23T20:10:12.343Z,101165.72
2019-04-23T20:12:26.215Z,101163.98
2019-04-23T20:14:41.694Z,101158.75
2019-04-23T20:17:04.481Z,101157.05
2019-04-23T20:19:07.236Z,101164.89
2019-04-23T20:23:26.527Z,101159.13
2019-04-23T20:25:57.087Z,101157.61
2019-04-23T20:27:42.422Z,101164.28
2019-04-23T20:34:37.386Z,101165.16
2019-04-23T20:36:46.563Z,101165.05
2019-04-23T20:39:02.629Z,101163.67
2019-04-23T20:41:08.328Z,101153.69
2019-04-23T20:43:05.753Z,101157.66
2019-04-23T20:45:21.498Z,101153.41
2019-04-23T20:47:27.254Z,101155.48
2019-04-23T20:49:44.282Z,101149.79
2019-04-23T20:51:54.949Z,101148.06
2019-04-23T20:54:02.146Z,101150.39
2019-04-23T20:56:07.172Z,101142.08
2019-04-23T20:58:20.877Z,101153.06
2019-04-23T21:00:32.501Z,101152.95
2019-04-23T21:05:03.240Z,101149.37
2019-04-23T21:07:12.192Z,101146.55
2019-04-23T21:11:14.126Z,101144.95
2019-04-23T21:13:43.401Z,101152.09
2019-04-23T21:22:13.534Z,101140.73
2019-04-23T21:24:11.287Z,101144.33
2019-04-23T21:26:22.613Z,101137.82
2019-04-23T21:28:37.208Z,101130.09
2019-04-23T21:31:03.428Z,101137.95
2019-04-23T21:32:56.233Z,101148.41
2019-04-23T21:35:07.723Z,101133.03
2019-04-23T21:37:04.510Z,101133.49
2019-04-23T21:41:44.818Z,101130.16
2019-04-23T21:44:05.636Z,101130.77
2019-04-23T21:54:21.652Z,101118.42
2019-04-23T22:00:59.446Z,101123.73
2019-04-23T22:05:09.030Z,101110.88
2019-04-23T22:07:16.767Z,101116.17
2019-04-23T22:09:32.251Z,101111.50
2019-04-23T22:14:05.518Z,101110.95
2019-04-23T22:16:01.346Z,101108.63
2019-04-23T22:18:00.222Z,101112.13
2019-04-23T22:22:11.189Z,101110.84
2019-04-23T22:24:19.448Z,101104.08
2019-04-23T22:26:36.305Z,101107.59
2019-04-23T22:28:57.752Z,101104.33
2019-04-23T22:31:03.713Z,101098.03
2019-04-23T22:33:11.241Z,101099.38
2019-04-23T22:35:07.575Z,101095.27
2019-04-23T22:37:19.412Z,101096.76
2019-04-23T22:39:31.616Z,101095.22
2019-04-23T22:41:46.216Z,101100.95
2019-04-23T22:43:52.979Z,101099.81
2019-04-23T22:45:59.992Z,101100.22
2019-04-23T22:48:04.659Z,101091.43
2019-04-23T22:50:16.340Z,101093.20
2019-04-23T22:52:26.544Z,101091.73
2019-04-23T22:54:21.169Z,101091.86
2019-04-23T22:56:44.311Z,101087.69
2019-04-23T22:59:05.606Z,101089.88
2019-04-23T23:01:10.670Z,101087.03
2019-04-23T23:03:22.641Z,101081.09
2019-04-23T23:05:39.821Z,101078.38
2019-04-23T23:07:49.639Z,101079.28
2019-04-23T23:09:55.731Z,101079.98
2019-04-23T23:16:07.173Z,101080.31
2019-04-23T23:18:19.669Z,101081.01
2019-04-23T23:22:41.065Z,101087.90
2019-04-23T23:24:46.045Z,101089.09
2019-04-23T23:26:54.294Z,101080.77
2019-04-23T23:28:55.390Z,101088.23
2019-04-23T23:31:18.717Z,101084.06
2019-04-23T23:33:36.575Z,101078.38
2019-04-23T23:37:34.587Z,101078.05
2019-04-23T23:39:54.294Z,101076.39
2019-04-23T23:44:24.438Z,101069.84
2019-04-23T23:46:23.701Z,101064.36
2019-04-23T23:48:12.871Z,101065.46
2019-04-23T23:50:30.321Z,101070.62
2019-04-23T23:52:40.949Z,101068.72
2019-04-23T23:54:43.802Z,101065.34
2019-04-23T23:56:58.361Z,101059.03
2019-04-23T23:59:04.238Z,101058.17
